createdAt,value
2022-10-16T00:00:01.031Z,98489.38
2022-10-16T00:01:15.886Z,98496.09
2022-10-16T00:02:17.801Z,98489.38
2022-10-16T00:03:19.601Z,98490.16
2022-10-16T00:04:21.302Z,98492.03
2022-10-16T00:05:23.058Z,98490.41
2022-10-16T00:06:26.689Z,98486.69
2022-10-16T00:07:28.648Z,98493.91
2022-10-16T00:08:31.735Z,98485.63
2022-10-16T00:09:33.446Z,98499.78
2022-10-16T00:10:36.366Z,98489.38
2022-10-16T00:11:40.880Z,98484.03
2022-10-16T00:12:42.707Z,98483.22
2022-10-16T00:13:47.087Z,98485.63
2022-10-16T00:14:48.871Z,98479.75
2022-10-16T00:15:50.591Z,98473.34
2022-10-16T00:16:52.327Z,98471.72
2022-10-16T00:17:54.142Z,98473.59
2022-10-16T00:18:56.530Z,98466.38
2022-10-16T00:19:58.294Z,98464.78
2022-10-16T00:21:06.858Z,98465.84
2022-10-16T00:22:08.637Z,98469.81
2022-10-16T00:23:11.422Z,98472.22
2022-10-16T00:24:13.285Z,98472.22
2022-10-16T00:25:15.168Z,98470.63
2022-10-16T00:26:18.458Z,98471.13
2022-10-16T00:27:20.203Z,98473.78
2022-10-16T00:28:22.013Z,98470.28
2022-10-16T00:29:23.984Z,98469.25
2022-10-16T00:30:27.815Z,98474.00
2022-10-16T00:31:30.470Z,98474.00
2022-10-16T00:32:32.175Z,98477.47
2022-10-16T00:33:35.469Z,98476.94
2022-10-16T00:34:37.308Z,98482.25
2022-10-16T00:35:39.015Z,98489.22
2022-10-16T00:36:40.725Z,98479.59
2022-10-16T00:37:42.487Z,98488.41
2022-10-16T00:38:45.002Z,98489.47
2022-10-16T00:39:46.751Z,98491.34
2022-10-16T00:40:48.460Z,98495.63
2022-10-16T00:41:50.508Z,98492.13
2022-10-16T00:42:52.246Z,98491.88
2022-10-16T00:43:59.916Z,98498.28
2022-10-16T00:45:02.046Z,98508.97
2022-10-16T00:46:31.168Z,98499.09
2022-10-16T00:47:49.971Z,98491.09
2022-10-16T00:49:19.327Z,98490.84
2022-10-16T00:50:35.016Z,98485.50
2022-10-16T00:51:46.576Z,98483.88
2022-10-16T00:52:51.643Z,98486.56
2022-10-16T00:53:53.914Z,98493.75
2022-10-16T00:54:57.408Z,98492.94
2022-10-16T00:55:59.320Z,98495.63
2022-10-16T00:57:06.150Z,98494.56
2022-10-16T00:58:08.079Z,98502.56
2022-10-16T00:59:27.108Z,98491.09
2022-10-16T01:00:28.854Z,98495.38
2022-10-16T01:01:30.719Z,98496.41
2022-10-16T01:02:32.722Z,98496.41
2022-10-16T01:03:37.355Z,98498.03
2022-10-16T01:04:44.488Z,98495.16
2022-10-16T01:06:05.607Z,98491.63
2022-10-16T01:07:31.476Z,98484.69
2022-10-16T01:09:10.455Z,98477.97
2022-10-16T01:10:24.192Z,98482.25
2022-10-16T01:12:01.940Z,98488.91
2022-10-16T01:13:24.839Z,98494.00
2022-10-16T01:14:48.874Z,98488.66
2022-10-16T01:16:16.792Z,98487.59
2022-10-16T01:17:38.160Z,98490.28
2022-10-16T01:19:19.305Z,98488.41
2022-10-16T01:20:46.677Z,98489.22
2022-10-16T01:21:54.124Z,98479.59
2022-10-16T01:23:42.301Z,98484.94
2022-10-16T01:24:51.401Z,98472.91
2022-10-16T01:26:26.646Z,98470.47
2022-10-16T01:27:33.549Z,98477.94
2022-10-16T01:29:07.678Z,98479.53
2022-10-16T01:30:22.715Z,98481.16
2022-10-16T01:31:35.207Z,98484.06
2022-10-16T01:32:47.261Z,98485.94
2022-10-16T01:34:04.393Z,98487.53
2022-10-16T01:35:22.244Z,98492.63
2022-10-16T01:36:33.495Z,98482.22
2022-10-16T01:37:46.905Z,98486.50
2022-10-16T01:38:54.673Z,98490.22
2022-10-16T01:40:03.530Z,98498.22
2022-10-16T01:41:19.511Z,98502.50
2022-10-16T01:42:29.255Z,98497.97
2022-10-16T01:44:07.732Z,98497.16
2022-10-16T01:45:14.278Z,98502.50
2022-10-16T01:46:21.103Z,98495.56
2022-10-16T01:47:26.573Z,98505.97
2022-10-16T01:48:30.805Z,98501.69
2022-10-16T01:49:37.199Z,98500.66
2022-10-16T01:50:44.139Z,98500.41
2022-10-16T01:51:53.119Z,98498.78
2022-10-16T01:52:57.647Z,98501.44
2022-10-16T01:54:03.434Z,98499.34
2022-10-16T01:55:09.402Z,98498.78
2022-10-16T01:56:16.097Z,98496.66
2022-10-16T01:57:21.226Z,98495.06
2022-10-16T01:58:26.161Z,98489.97
2022-10-16T01:59:34.039Z,98499.34
2022-10-16T02:00:40.907Z,98491.56
2022-10-16T02:01:50.892Z,98488.09
2022-10-16T02:02:56.133Z,98490.53
2022-10-16T02:04:16.387Z,98492.38
2022-10-16T02:05:31.902Z,98489.72
2022-10-16T02:06:33.655Z,98484.38
2022-10-16T02:07:35.430Z,98479.03
2022-10-16T02:08:37.629Z,98476.38
2022-10-16T02:09:40.204Z,98475.81
2022-10-16T02:10:42.643Z,98476.63
2022-10-16T02:11:45.451Z,98479.53
2022-10-16T02:12:57.388Z,98484.38
2022-10-16T02:14:07.193Z,98479.03
2022-10-16T02:15:09.523Z,98487.03
2022-10-16T02:16:14.191Z,98491.34
2022-10-16T02:17:18.484Z,98489.72
2022-10-16T02:18:21.244Z,98493.19
2022-10-16T02:19:23.519Z,98488.66
2022-10-16T02:20:33.541Z,98497.22
2022-10-16T02:21:49.741Z,98495.38
2022-10-16T02:22:54.894Z,98487.34
2022-10-16T02:24:33.607Z,98490.84
2022-10-16T02:25:43.205Z,98490.38
2022-10-16T02:27:25.387Z,98497.56
2022-10-16T02:28:43.131Z,98496.75
2022-10-16T02:29:52.297Z,98490.63
2022-10-16T02:31:19.775Z,98494.91
2022-10-16T02:32:28.230Z,98498.13
2022-10-16T02:33:32.676Z,98501.03
2022-10-16T02:34:36.947Z,98493.28
2022-10-16T02:35:39.781Z,98494.66
2022-10-16T02:36:45.532Z,98493.59
2022-10-16T02:37:50.024Z,98491.97
2022-10-16T02:38:53.436Z,98491.97
2022-10-16T02:39:58.943Z,98482.34
2022-10-16T02:41:00.800Z,98486.31
2022-10-16T02:42:03.211Z,98482.59
2022-10-16T02:43:06.232Z,98486.09
2022-10-16T02:44:08.028Z,98494.91
2022-10-16T02:45:12.336Z,98495.69
2022-10-16T02:46:14.217Z,98494.91
2022-10-16T02:47:16.030Z,98495.16
2022-10-16T02:48:17.790Z,98495.16
2022-10-16T02:49:19.670Z,98494.09
2022-10-16T02:50:21.604Z,98498.84
2022-10-16T02:51:23.304Z,98506.03
2022-10-16T02:52:25.364Z,98503.38
2022-10-16T02:53:27.356Z,98501.75
2022-10-16T02:54:29.100Z,98505.81
2022-10-16T02:55:30.892Z,98504.97
2022-10-16T02:56:32.766Z,98497.81
2022-10-16T02:57:34.552Z,98500.47
2022-10-16T02:58:36.343Z,98502.09
2022-10-16T02:59:38.457Z,98506.63
2022-10-16T03:00:40.276Z,98503.16
2022-10-16T03:01:41.993Z,98504.78
2022-10-16T03:02:44.240Z,98503.72
2022-10-16T03:03:45.981Z,98509.59
2022-10-16T03:04:47.673Z,98513.09
2022-10-16T03:05:49.413Z,98516.56
2022-10-16T03:06:51.168Z,98514.69
2022-10-16T03:07:53.621Z,98517.94
2022-10-16T03:08:55.323Z,98512.84
2022-10-16T03:09:57.110Z,98517.13
2022-10-16T03:10:58.813Z,98513.38
2022-10-16T03:12:00.730Z,98510.72
2022-10-16T03:13:02.477Z,98511.53
2022-10-16T03:14:04.193Z,98507.25
2022-10-16T03:15:07.739Z,98505.38
2022-10-16T03:16:09.502Z,98506.44
2022-10-16T03:17:11.211Z,98509.66
2022-10-16T03:18:13.288Z,98505.38
2022-10-16T03:19:17.216Z,98510.72
2022-10-16T03:20:18.927Z,98510.72
2022-10-16T03:21:20.663Z,98507.25
2022-10-16T03:22:22.395Z,98498.44
2022-10-16T03:23:24.240Z,98509.09
2022-10-16T03:24:25.993Z,98505.88
2022-10-16T03:25:27.710Z,98509.34
2022-10-16T03:26:29.415Z,98509.09
2022-10-16T03:27:31.156Z,98516.06
2022-10-16T03:28:33.021Z,98514.44
2022-10-16T03:29:35.066Z,98511.22
2022-10-16T03:30:36.791Z,98512.03
2022-10-16T03:31:38.535Z,98513.88
2022-10-16T03:32:40.255Z,98512.28
2022-10-16T03:33:42.102Z,98516.81
2022-10-16T03:34:43.994Z,98518.66
2022-10-16T03:35:54.146Z,98511.72
2022-10-16T03:36:56.402Z,98511.72
2022-10-16T03:37:58.163Z,98519.47
2022-10-16T03:38:59.989Z,98515.44
2022-10-16T03:40:02.187Z,98511.16
2022-10-16T03:41:04.907Z,98514.84
2022-10-16T03:42:06.676Z,98519.38
2022-10-16T03:43:08.444Z,98519.16
2022-10-16T03:44:10.453Z,98521.25
2022-10-16T03:45:12.903Z,98517.78
2022-10-16T03:46:14.693Z,98522.06
2022-10-16T03:47:16.457Z,98519.38
2022-10-16T03:48:19.935Z,98517.53
2022-10-16T03:49:21.658Z,98520.44
2022-10-16T03:50:23.357Z,98514.31
2022-10-16T03:51:25.288Z,98511.63
2022-10-16T03:52:27.475Z,98514.31
2022-10-16T03:53:29.202Z,98508.16
2022-10-16T03:54:30.935Z,98511.63
2022-10-16T03:55:32.668Z,98512.69
2022-10-16T03:56:34.430Z,98510.00
2022-10-16T03:57:36.150Z,98517.22
2022-10-16T03:58:37.877Z,98510.81
2022-10-16T03:59:39.598Z,98512.44
2022-10-16T04:00:45.871Z,98515.09
2022-10-16T04:01:47.624Z,98511.63
2022-10-16T04:02:49.326Z,98510.56
2022-10-16T04:03:51.046Z,98514.31
2022-10-16T04:04:52.749Z,98505.22
2022-10-16T04:05:54.458Z,98507.34
2022-10-16T04:06:56.164Z,98500.94
2022-10-16T04:07:57.881Z,98510.56
2022-10-16T04:08:59.739Z,98508.97
2022-10-16T04:10:01.717Z,98515.09
2022-10-16T04:11:04.344Z,98517.53
2022-10-16T04:12:06.107Z,98514.84
2022-10-16T04:13:07.822Z,98510.56
2022-10-16T04:14:09.728Z,98509.75
2022-10-16T04:15:11.559Z,98512.44
2022-10-16T04:16:13.355Z,98517.53
2022-10-16T04:17:15.132Z,98525.53
2022-10-16T04:18:16.833Z,98520.19
2022-10-16T04:19:18.559Z,98529.00
2022-10-16T04:20:20.340Z,98523.13
2022-10-16T04:21:22.192Z,98522.06
2022-10-16T04:22:24.031Z,98523.66
2022-10-16T04:23:25.865Z,98520.19
2022-10-16T04:24:27.589Z,98528.19
2022-10-16T04:25:29.775Z,98523.66
2022-10-16T04:26:31.677Z,98527.19
2022-10-16T04:27:33.634Z,98519.38
2022-10-16T04:28:35.404Z,98524.72
2022-10-16T04:29:37.159Z,98528.44
2022-10-16T04:30:40.081Z,98532.72
2022-10-16T04:31:41.896Z,98532.19
2022-10-16T04:32:43.589Z,98521.25
2022-10-16T04:33:45.486Z,98530.06
2022-10-16T04:34:47.201Z,98538.88
2022-10-16T04:35:48.900Z,98536.72
2022-10-16T04:36:50.884Z,98541.00
2022-10-16T04:37:52.632Z,98541.78
2022-10-16T04:38:54.735Z,98544.22
2022-10-16T04:39:56.511Z,98544.72
2022-10-16T04:40:58.327Z,98546.31
2022-10-16T04:42:00.117Z,98545.53
2022-10-16T04:43:01.817Z,98544.47
2022-10-16T04:44:03.566Z,98545.53
2022-10-16T04:45:07.238Z,98547.13
2022-10-16T04:46:08.976Z,98542.84
2022-10-16T04:47:10.712Z,98547.94
2022-10-16T04:48:12.700Z,98546.56
2022-10-16T04:49:14.411Z,98551.91
2022-10-16T04:50:16.205Z,98557.00
2022-10-16T04:51:19.575Z,98556.69
2022-10-16T04:52:22.540Z,98553.22
2022-10-16T04:53:24.507Z,98556.69
2022-10-16T04:54:26.199Z,98559.38
2022-10-16T04:55:27.976Z,98559.38
2022-10-16T04:56:29.740Z,98557.19
2022-10-16T04:57:31.488Z,98558.81
2022-10-16T04:58:33.968Z,98556.13
2022-10-16T04:59:35.676Z,98565.75
2022-10-16T05:00:39.114Z,98565.75
2022-10-16T05:01:41.408Z,98560.41
2022-10-16T05:02:43.174Z,98554.28
2022-10-16T05:03:44.963Z,98556.13
2022-10-16T05:04:46.853Z,98564.16
2022-10-16T05:05:48.833Z,98564.94
2022-10-16T05:06:50.535Z,98567.06
2022-10-16T05:07:52.688Z,98567.06
2022-10-16T05:08:54.563Z,98564.03
2022-10-16T05:09:56.276Z,98571.25
2022-10-16T05:10:57.998Z,98566.16
2022-10-16T05:11:59.743Z,98576.84
2022-10-16T05:13:01.461Z,98570.44
2022-10-16T05:14:03.984Z,98572.06
2022-10-16T05:15:06.616Z,98571.81
2022-10-16T05:16:08.370Z,98579.00
2022-10-16T05:17:10.138Z,98574.72
2022-10-16T05:18:11.868Z,98572.88
2022-10-16T05:19:29.233Z,98573.09
2022-10-16T05:20:31.104Z,98571.25
2022-10-16T05:21:32.851Z,98569.63
2022-10-16T05:22:34.562Z,98569.38
2022-10-16T05:23:36.261Z,98568.00
2022-10-16T05:24:37.990Z,98566.97
2022-10-16T05:25:39.741Z,98573.34
2022-10-16T05:26:41.466Z,98573.34
2022-10-16T05:27:43.317Z,98576.59
2022-10-16T05:28:45.091Z,98569.63
2022-10-16T05:29:48.325Z,98572.06
2022-10-16T05:30:50.068Z,98572.88
2022-10-16T05:31:54.224Z,98569.94
2022-10-16T05:32:56.075Z,98572.41
2022-10-16T05:34:01.539Z,98567.06
2022-10-16T05:35:04.226Z,98567.88
2022-10-16T05:36:10.252Z,98562.28
2022-10-16T05:37:13.110Z,98566.81
2022-10-16T05:38:15.171Z,98567.63
2022-10-16T05:39:17.447Z,98563.91
2022-10-16T05:40:19.211Z,98568.19
2022-10-16T05:41:22.574Z,98561.22
2022-10-16T05:42:24.469Z,98559.13
2022-10-16T05:43:27.899Z,98562.84
2022-10-16T05:44:29.646Z,98560.97
2022-10-16T05:45:31.414Z,98557.75
2022-10-16T05:46:34.165Z,98558.56
2022-10-16T05:47:35.861Z,98560.41
2022-10-16T05:48:37.571Z,98568.19
2022-10-16T05:49:41.361Z,98556.44
2022-10-16T05:50:43.344Z,98562.59
2022-10-16T05:51:45.164Z,98567.69
2022-10-16T05:52:46.908Z,98567.94
2022-10-16T05:53:48.648Z,98564.22
2022-10-16T05:54:50.624Z,98566.88
2022-10-16T05:55:59.389Z,98571.97
2022-10-16T05:57:01.142Z,98573.03
2022-10-16T05:58:02.852Z,98576.75
2022-10-16T05:59:06.052Z,98578.38
2022-10-16T06:00:08.772Z,98581.03
2022-10-16T06:01:18.286Z,98581.03
2022-10-16T06:02:20.104Z,98588.47
2022-10-16T06:03:22.153Z,98585.00
2022-10-16T06:04:24.056Z,98585.00
2022-10-16T06:05:27.084Z,98591.97
2022-10-16T06:06:30.610Z,98590.34
2022-10-16T06:07:36.843Z,98594.38
2022-10-16T06:08:39.424Z,98600.78
2022-10-16T06:09:41.232Z,98599.97
2022-10-16T06:10:44.613Z,98594.88
2022-10-16T06:11:46.415Z,98592.75
2022-10-16T06:12:48.115Z,98599.16
2022-10-16T06:13:59.279Z,98592.44
2022-10-16T06:15:01.005Z,98596.75
2022-10-16T06:16:04.544Z,98588.97
2022-10-16T06:17:06.239Z,98593.50
2022-10-16T06:18:08.316Z,98594.31
2022-10-16T06:19:10.358Z,98594.31
2022-10-16T06:20:12.294Z,98593.25
2022-10-16T06:21:19.737Z,98590.34
2022-10-16T06:22:21.456Z,98586.31
2022-10-16T06:23:23.805Z,98586.31
2022-10-16T06:24:26.631Z,98602.06
2022-10-16T06:25:28.352Z,98595.13
2022-10-16T06:26:31.754Z,98596.75
2022-10-16T06:27:33.652Z,98596.97
2022-10-16T06:28:35.550Z,98588.16
2022-10-16T06:29:37.337Z,98577.50
2022-10-16T06:30:39.232Z,98585.25
2022-10-16T06:31:40.983Z,98578.28
2022-10-16T06:32:42.834Z,98583.38
2022-10-16T06:33:46.478Z,98590.59
2022-10-16T06:34:48.174Z,98591.66
2022-10-16T06:35:49.913Z,98600.22
2022-10-16T06:36:51.659Z,98594.06
2022-10-16T06:37:54.480Z,98593.00
2022-10-16T06:38:56.371Z,98599.16
2022-10-16T06:39:58.068Z,98600.22
2022-10-16T06:40:59.991Z,98594.88
2022-10-16T06:42:01.749Z,98607.16
2022-10-16T06:43:03.508Z,98604.50
2022-10-16T06:44:08.725Z,98609.59
2022-10-16T06:45:10.789Z,98608.22
2022-10-16T06:46:15.890Z,98605.31
2022-10-16T06:47:17.624Z,98624.00
2022-10-16T06:48:19.411Z,98621.56
2022-10-16T06:49:23.399Z,98621.56
2022-10-16T06:50:25.150Z,98624.25
2022-10-16T06:51:27.087Z,98627.97
2022-10-16T06:52:31.931Z,98625.03
2022-10-16T06:53:40.069Z,98626.66
2022-10-16T06:54:51.337Z,98636.78
2022-10-16T06:55:53.073Z,98634.09
2022-10-16T06:56:55.836Z,98637.03
2022-10-16T06:57:57.540Z,98640.50
2022-10-16T06:58:59.623Z,98641.56
2022-10-16T07:00:01.353Z,98640.50
2022-10-16T07:01:03.567Z,98650.94
2022-10-16T07:02:05.340Z,98649.31
2022-10-16T07:03:07.069Z,98638.63
2022-10-16T07:04:08.834Z,98646.66
2022-10-16T07:05:10.578Z,98643.72
2022-10-16T07:06:19.552Z,98649.63
2022-10-16T07:07:21.346Z,98660.56
2022-10-16T07:08:23.602Z,98661.59
2022-10-16T07:09:25.539Z,98660.56
2022-10-16T07:10:27.224Z,98661.38
2022-10-16T07:11:28.972Z,98662.16
2022-10-16T07:12:30.667Z,98666.47
2022-10-16T07:13:36.109Z,98668.06
2022-10-16T07:14:37.872Z,98663.53
2022-10-16T07:15:39.776Z,98667.25
2022-10-16T07:16:41.545Z,98664.59
2022-10-16T07:17:43.241Z,98665.41
2022-10-16T07:18:47.397Z,98662.72
2022-10-16T07:19:49.176Z,98665.41
2022-10-16T07:20:50.874Z,98664.34
2022-10-16T07:21:52.576Z,98661.69
2022-10-16T07:22:54.266Z,98670.75
2022-10-16T07:24:02.024Z,98663.31
2022-10-16T07:25:04.301Z,98672.34
2022-10-16T07:26:07.277Z,98675.03
2022-10-16T07:27:09.046Z,98676.69
2022-10-16T07:28:10.928Z,98664.34
2022-10-16T07:29:20.772Z,98662.50
2022-10-16T07:30:22.487Z,98667.03
2022-10-16T07:31:24.936Z,98667.03
2022-10-16T07:32:27.022Z,98663.88
2022-10-16T07:33:29.697Z,98662.28
2022-10-16T07:34:31.483Z,98671.66
2022-10-16T07:35:33.177Z,98668.19
2022-10-16T07:36:35.378Z,98662.59
2022-10-16T07:37:37.130Z,98664.47
2022-10-16T07:38:39.309Z,98665.25
2022-10-16T07:39:41.106Z,98666.88
2022-10-16T07:40:42.937Z,98668.50
2022-10-16T07:41:44.907Z,98666.63
2022-10-16T07:42:46.613Z,98669.06
2022-10-16T07:43:50.782Z,98670.13
2022-10-16T07:44:52.565Z,98673.59
2022-10-16T07:45:55.915Z,98677.06
2022-10-16T07:46:58.516Z,98674.16
2022-10-16T07:48:00.222Z,98681.13
2022-10-16T07:49:02.014Z,98680.34
2022-10-16T07:50:04.192Z,98681.13
2022-10-16T07:51:08.068Z,98688.09
2022-10-16T07:52:09.786Z,98688.91
2022-10-16T07:53:12.796Z,98688.09
2022-10-16T07:54:14.647Z,98689.75
2022-10-16T07:55:16.359Z,98688.69
2022-10-16T07:56:20.006Z,98693.78
2022-10-16T07:57:21.769Z,98692.97
2022-10-16T07:58:23.520Z,98691.13
2022-10-16T07:59:25.290Z,98692.72
2022-10-16T08:00:26.983Z,98693.53
2022-10-16T08:01:28.833Z,98689.25
2022-10-16T08:02:32.904Z,98694.91
2022-10-16T08:03:35.339Z,98696.78
2022-10-16T08:04:37.051Z,98699.19
2022-10-16T08:05:38.822Z,98700.03
2022-10-16T08:06:42.256Z,98700.59
2022-10-16T08:07:43.975Z,98704.06
2022-10-16T08:08:45.690Z,98700.34
2022-10-16T08:09:51.425Z,98700.66
2022-10-16T08:10:53.490Z,98709.25
2022-10-16T08:12:24.275Z,98711.44
2022-10-16T08:13:27.368Z,98712.81
2022-10-16T08:14:29.066Z,98704.00
2022-10-16T08:15:30.810Z,98708.84
2022-10-16T08:16:32.525Z,98705.94
2022-10-16T08:17:34.261Z,98706.50
2022-10-16T08:18:37.942Z,98709.75
2022-10-16T08:19:39.811Z,98704.41
2022-10-16T08:20:44.122Z,98716.47
2022-10-16T08:21:48.979Z,98715.16
2022-10-16T08:22:50.749Z,98710.63
2022-10-16T08:23:57.147Z,98712.81
2022-10-16T08:25:00.252Z,98716.88
2022-10-16T08:26:08.114Z,98721.47
2022-10-16T08:27:09.985Z,98715.63
2022-10-16T08:28:12.252Z,98723.41
2022-10-16T08:29:15.355Z,98720.28
2022-10-16T08:30:19.975Z,98721.13
2022-10-16T08:31:22.955Z,98723.56
2022-10-16T08:32:27.504Z,98730.56
2022-10-16T08:33:29.521Z,98725.78
2022-10-16T08:34:31.222Z,98727.69
2022-10-16T08:35:32.938Z,98730.69
2022-10-16T08:36:34.675Z,98730.56
2022-10-16T08:37:37.060Z,98736.00
2022-10-16T08:38:39.979Z,98727.47
2022-10-16T08:39:41.810Z,98718.94
2022-10-16T08:40:43.864Z,98726.47
2022-10-16T08:42:07.644Z,98734.00
2022-10-16T08:43:24.436Z,98724.94
2022-10-16T08:44:44.477Z,98731.34
2022-10-16T08:46:21.229Z,98745.03
2022-10-16T08:47:54.917Z,98744.22
2022-10-16T08:49:00.274Z,98744.78
2022-10-16T08:50:19.522Z,98733.25
2022-10-16T08:51:30.588Z,98735.69
2022-10-16T08:52:39.903Z,98741.84
2022-10-16T08:54:00.255Z,98743.47
2022-10-16T08:55:04.217Z,98736.50
2022-10-16T08:56:06.647Z,98738.91
2022-10-16T08:57:24.573Z,98738.91
2022-10-16T08:58:31.409Z,98732.28
2022-10-16T08:59:33.114Z,98732.53
2022-10-16T09:00:35.046Z,98734.16
2022-10-16T09:01:48.510Z,98740.06
2022-10-16T09:03:23.191Z,98735.53
2022-10-16T09:04:56.700Z,98733.91
2022-10-16T09:06:31.789Z,98726.69
2022-10-16T09:08:28.710Z,98742.75
2022-10-16T09:09:54.667Z,98736.31
2022-10-16T09:11:37.620Z,98738.44
2022-10-16T09:13:21.463Z,98744.59
2022-10-16T09:14:59.834Z,98745.91
2022-10-16T09:16:23.196Z,98743.00
2022-10-16T09:17:36.915Z,98744.84
2022-10-16T09:18:55.843Z,98745.91
2022-10-16T09:20:48.060Z,98749.16
2022-10-16T09:21:50.155Z,98752.88
2022-10-16T09:23:15.720Z,98761.22
2022-10-16T09:24:28.515Z,98768.72
2022-10-16T09:25:33.581Z,98768.22
2022-10-16T09:26:35.362Z,98767.41
2022-10-16T09:27:37.991Z,98773.91
2022-10-16T09:28:40.322Z,98773.66
2022-10-16T09:29:42.251Z,98777.16
2022-10-16T09:30:45.008Z,98775.59
2022-10-16T09:31:47.645Z,98776.97
2022-10-16T09:32:54.360Z,98770.31
2022-10-16T09:34:07.235Z,98778.66
2022-10-16T09:35:40.808Z,98785.94
2022-10-16T09:36:47.043Z,98786.00
2022-10-16T09:37:55.241Z,98783.41
2022-10-16T09:39:12.919Z,98784.66
2022-10-16T09:40:31.336Z,98788.13
2022-10-16T09:41:40.405Z,98785.16
2022-10-16T09:42:42.347Z,98782.97
2022-10-16T09:43:58.523Z,98790.41
2022-10-16T09:45:00.261Z,98787.59
2022-10-16T09:46:08.330Z,98790.13
2022-10-16T09:47:18.922Z,98783.84
2022-10-16T09:48:21.826Z,98790.09
2022-10-16T09:49:27.795Z,98792.66
2022-10-16T09:50:29.912Z,98796.03
2022-10-16T09:51:38.386Z,98793.72
2022-10-16T09:52:40.132Z,98790.81
2022-10-16T09:53:47.447Z,98794.31
2022-10-16T09:55:13.356Z,98791.91
2022-10-16T09:56:36.566Z,98797.00
2022-10-16T09:57:38.276Z,98785.16
2022-10-16T09:58:45.456Z,98787.50
2022-10-16T09:59:59.398Z,98792.28
2022-10-16T10:01:01.719Z,98777.63
2022-10-16T10:02:14.366Z,98783.34
2022-10-16T10:03:38.899Z,98785.78
2022-10-16T10:04:51.076Z,98790.50
2022-10-16T10:05:53.022Z,98795.47
2022-10-16T10:06:57.887Z,98788.47
2022-10-16T10:08:07.112Z,98789.91
2022-10-16T10:09:25.554Z,98788.47
2022-10-16T10:10:31.489Z,98792.22
2022-10-16T10:11:48.955Z,98804.00
2022-10-16T10:12:51.097Z,98797.78
2022-10-16T10:13:52.851Z,98796.94
2022-10-16T10:14:58.923Z,98792.81
2022-10-16T10:16:00.684Z,98799.47
2022-10-16T10:17:17.310Z,98798.44
2022-10-16T10:18:23.869Z,98790.91
2022-10-16T10:19:28.154Z,98792.75
2022-10-16T10:20:35.673Z,98794.53
2022-10-16T10:21:39.541Z,98799.03
2022-10-16T10:22:47.578Z,98795.97
2022-10-16T10:23:57.929Z,98792.59
2022-10-16T10:25:14.498Z,98797.41
2022-10-16T10:26:25.017Z,98795.81
2022-10-16T10:27:53.813Z,98789.66
2022-10-16T10:29:41.023Z,98799.91
2022-10-16T10:30:48.639Z,98794.44
2022-10-16T10:32:12.402Z,98795.16
2022-10-16T10:33:46.275Z,98796.63
2022-10-16T10:35:03.879Z,98797.16
2022-10-16T10:36:31.432Z,98807.94
2022-10-16T10:37:53.280Z,98798.09
2022-10-16T10:39:04.549Z,98799.97
2022-10-16T10:40:47.507Z,98808.00
2022-10-16T10:42:07.370Z,98803.53
2022-10-16T10:43:39.024Z,98805.53
2022-10-16T10:45:27.370Z,98808.03
2022-10-16T10:47:06.020Z,98806.06
2022-10-16T10:48:54.182Z,98812.72
2022-10-16T10:50:44.654Z,98813.22
2022-10-16T10:52:34.851Z,98806.75
2022-10-16T10:53:55.987Z,98808.41
2022-10-16T10:55:17.127Z,98799.09
2022-10-16T10:56:50.901Z,98807.13
2022-10-16T10:58:32.231Z,98810.28
2022-10-16T10:59:54.860Z,98807.72
2022-10-16T11:01:14.393Z,98804.34
2022-10-16T11:02:23.065Z,98803.91
2022-10-16T11:03:42.562Z,98806.16
2022-10-16T11:05:28.382Z,98808.41
2022-10-16T11:06:45.387Z,98804.44
2022-10-16T11:08:05.924Z,98808.25
2022-10-16T11:09:33.507Z,98807.78
2022-10-16T11:10:54.694Z,98811.09
2022-10-16T11:12:32.920Z,98815.41
2022-10-16T11:13:59.183Z,98814.31
2022-10-16T11:15:21.405Z,98804.31
2022-10-16T11:16:36.472Z,98811.00
2022-10-16T11:17:51.429Z,98797.75
2022-10-16T11:19:26.975Z,98805.94
2022-10-16T11:20:43.825Z,98803.28
2022-10-16T11:22:17.918Z,98800.91
2022-10-16T11:23:57.929Z,98803.22
2022-10-16T11:25:03.918Z,98798.94
2022-10-16T11:26:26.057Z,98802.50
2022-10-16T11:27:59.717Z,98801.66
2022-10-16T11:29:08.912Z,98801.56
2022-10-16T11:30:25.298Z,98792.91
2022-10-16T11:31:39.681Z,98790.69
2022-10-16T11:33:17.540Z,98790.16
2022-10-16T11:34:22.946Z,98791.09
2022-10-16T11:35:37.318Z,98791.94
2022-10-16T11:36:51.026Z,98800.59
2022-10-16T11:37:57.995Z,98788.34
2022-10-16T11:39:23.851Z,98782.72
2022-10-16T11:40:42.513Z,98780.81
2022-10-16T11:42:26.364Z,98787.16
2022-10-16T11:43:41.909Z,98781.53
2022-10-16T11:45:05.982Z,98791.34
2022-10-16T11:46:22.437Z,98787.34
2022-10-16T11:47:59.198Z,98796.38
2022-10-16T11:49:13.660Z,98797.88
2022-10-16T11:51:06.085Z,98797.69
2022-10-16T11:52:45.703Z,98797.41
2022-10-16T11:53:58.289Z,98802.69
2022-10-16T11:55:17.653Z,98801.59
2022-10-16T11:56:22.274Z,98803.34
2022-10-16T11:57:32.934Z,98801.63
2022-10-16T11:58:37.623Z,98796.13
2022-10-16T11:59:49.723Z,98797.09
2022-10-16T12:01:09.572Z,98790.84
2022-10-16T12:02:45.249Z,98797.56
2022-10-16T12:04:07.596Z,98804.56
2022-10-16T12:06:03.595Z,98804.03
2022-10-16T12:07:12.860Z,98802.78
2022-10-16T12:08:17.249Z,98799.41
2022-10-16T12:09:35.519Z,98796.03
2022-10-16T12:11:41.265Z,98801.34
2022-10-16T12:12:46.264Z,98801.41
2022-10-16T12:13:49.127Z,98803.69
2022-10-16T12:15:22.472Z,98793.00
2022-10-16T12:16:58.358Z,98800.84
2022-10-16T12:18:00.937Z,98788.47
2022-10-16T12:19:15.129Z,98800.66
2022-10-16T12:20:22.744Z,98792.03
2022-10-16T12:21:32.513Z,98794.22
2022-10-16T12:22:38.050Z,98789.38
2022-10-16T12:23:58.940Z,98792.09
2022-10-16T12:25:00.794Z,98790.19
2022-10-16T12:26:03.626Z,98791.81
2022-10-16T12:27:24.875Z,98782.59
2022-10-16T12:28:47.477Z,98791.75
2022-10-16T12:30:01.364Z,98793.59
2022-10-16T12:31:10.947Z,98792.75
2022-10-16T12:32:46.145Z,98795.44
2022-10-16T12:34:04.126Z,98797.06
2022-10-16T12:35:20.904Z,98798.94
2022-10-16T12:36:36.202Z,98791.41
2022-10-16T12:37:39.508Z,98800.88
2022-10-16T12:38:49.920Z,98791.47
2022-10-16T12:39:55.494Z,98786.63
2022-10-16T12:41:13.234Z,98791.50
2022-10-16T12:42:31.136Z,98784.47
2022-10-16T12:43:48.885Z,98783.88
2022-10-16T12:44:51.213Z,98785.22
2022-10-16T12:46:09.948Z,98787.13
2022-10-16T12:47:22.305Z,98790.38
2022-10-16T12:48:29.195Z,98785.25
2022-10-16T12:49:51.568Z,98788.00
2022-10-16T12:50:53.401Z,98793.19
2022-10-16T12:51:56.068Z,98788.63
2022-10-16T12:52:59.052Z,98788.13
2022-10-16T12:54:31.175Z,98785.19
2022-10-16T12:55:53.876Z,98784.72
2022-10-16T12:57:21.827Z,98783.41
2022-10-16T12:58:41.128Z,98778.06
2022-10-16T13:00:01.865Z,98776.22
2022-10-16T13:01:30.733Z,98779.78
2022-10-16T13:02:47.056Z,98775.78
2022-10-16T13:04:28.423Z,98774.78
2022-10-16T13:05:50.955Z,98781.25
2022-10-16T13:07:03.600Z,98789.94
2022-10-16T13:08:18.210Z,98784.84
2022-10-16T13:09:48.609Z,98784.91
2022-10-16T13:11:11.367Z,98791.13
2022-10-16T13:12:50.111Z,98787.44
2022-10-16T13:14:29.346Z,98783.47
2022-10-16T13:15:59.960Z,98794.03
2022-10-16T13:17:23.672Z,98799.47
2022-10-16T13:19:15.603Z,98804.34
2022-10-16T13:20:50.779Z,98804.13
2022-10-16T13:22:20.831Z,98810.63
2022-10-16T13:23:37.497Z,98803.66
2022-10-16T13:24:47.967Z,98806.38
2022-10-16T13:26:25.091Z,98809.38
2022-10-16T13:28:05.025Z,98806.19
2022-10-16T13:29:07.034Z,98807.81
2022-10-16T13:30:25.761Z,98807.03